Time;durP1;ratioP1;P1;durP2;ratioP2;P2;SDS_P1;SDS_P2;PMS_P1;PMS_P2;Temp;Humidity;BMP_temperature;BMP_pressure;BME280_temperature;BME280_humidity;BME280_pressure;Samples;Min_cycle;Max_cycle;Signal;HPM_P1;HPM_P2
2022/09/25 00:01:11;;;;;;;25.90;16.25;;;12.30;99.90;;;;;;5051020;28;20055;-45
2022/09/25 00:03:37;;;;;;;27.48;15.85;;;12.30;99.90;;;;;;5051955;28;20028;-43
2022/09/25 00:06:06;;;;;;;23.75;16.65;;;12.30;99.90;;;;;;5050864;28;20029;-44
2022/09/25 00:08:32;;;;;;;22.77;15.50;;;12.30;99.90;;;;;;5045001;28;20095;-45
2022/09/25 00:10:58;;;;;;;23.38;15.88;;;12.30;99.90;;;;;;5044047;28;20028;-44
2022/09/25 00:13:24;;;;;;;28.85;17.88;;;12.30;99.90;;;;;;5051762;28;20021;-47
2022/09/25 00:15:52;;;;;;;23.88;16.38;;;12.30;99.90;;;;;;5052553;28;20032;-45
2022/09/25 00:19:48;;;;;;;27.17;17.15;;;12.40;99.90;;;;;;5051883;28;20363;-45
2022/09/25 00:21:07;;;;;;;28.77;18.30;;;12.40;99.90;;;;;;5051902;28;20025;-47
2022/09/25 00:23:33;;;;;;;25.27;17.83;;;12.40;99.90;;;;;;5050004;28;20036;-46
2022/09/25 00:25:59;;;;;;;26.80;18.25;;;12.40;99.90;;;;;;5052006;28;20029;-47
2022/09/25 00:28:28;;;;;;;25.90;18.13;;;12.40;99.90;;;;;;5051919;28;20025;-45
2022/09/25 00:30:55;;;;;;;23.98;16.90;;;12.40;99.90;;;;;;5051896;28;20545;-46
2022/09/25 00:33:21;;;;;;;28.30;18.70;;;12.40;99.90;;;;;;5051391;28;20032;-45
2022/09/25 00:35:46;;;;;;;24.35;17.00;;;12.40;99.90;;;;;;5051845;28;20021;-46
2022/09/25 00:38:12;;;;;;;27.80;18.88;;;12.50;99.90;;;;;;5046996;28;20029;-45
2022/09/25 00:40:37;;;;;;;27.80;17.95;;;12.50;99.90;;;;;;5042077;28;20021;-46
2022/09/25 00:43:10;;;;;;;25.77;18.17;;;12.50;99.90;;;;;;5051225;28;20406;-46
2022/09/25 00:45:35;;;;;;;27.63;18.08;;;12.50;99.90;;;;;;5051582;28;20390;-44
2022/09/25 00:48:08;;;;;;;26.10;16.10;;;12.60;99.90;;;;;;5051569;28;20025;-45
2022/09/25 00:50:47;;;;;;;26.05;18.08;;;12.60;99.90;;;;;;5051811;28;20025;-45
2022/09/25 00:53:33;;;;;;;28.02;18.45;;;12.60;99.90;;;;;;5050756;28;20116;-44
2022/09/25 00:56:02;;;;;;;23.55;15.80;;;12.70;99.90;;;;;;5050689;28;20029;-46
2022/09/25 00:58:29;;;;;;;25.88;17.83;;;12.70;99.90;;;;;;5051004;28;20114;-46
2022/09/25 01:00:55;;;;;;;31.90;19.45;;;12.60;99.90;;;;;;5050182;28;20032;-47
2022/09/25 01:03:22;;;;;;;32.70;21.02;;;12.70;99.90;;;;;;5050576;28;20448;-47
2022/09/25 01:05:48;;;;;;;28.60;18.48;;;12.70;99.90;;;;;;5051295;28;20411;-46
2022/09/25 01:08:19;;;;;;;23.95;16.23;;;12.70;99.90;;;;;;5045554;28;20037;-44
2022/09/25 01:10:44;;;;;;;25.30;16.50;;;12.70;99.90;;;;;;5042693;28;20541;-45
2022/09/25 01:13:12;;;;;;;23.80;16.55;;;12.70;99.90;;;;;;5050740;28;20041;-45
2022/09/25 01:15:48;;;;;;;31.48;20.08;;;12.70;99.90;;;;;;5051074;28;20103;-46
2022/09/25 01:18:21;;;;;;;27.10;18.30;;;12.70;99.90;;;;;;5050843;28;20075;-44
2022/09/25 01:20:50;;;;;;;32.53;21.95;;;12.60;99.90;;;;;;5050204;28;20119;-45
2022/09/25 01:23:19;;;;;;;30.23;19.40;;;12.60;99.90;;;;;;5049327;28;20024;-44
2022/09/25 01:25:45;;;;;;;29.30;19.67;;;12.60;99.90;;;;;;5050042;28;20139;-46
2022/09/25 01:28:37;;;;;;;34.70;21.73;;;12.60;99.90;;;;;;5050034;28;20039;-44
2022/09/25 01:31:16;;;;;;;33.42;21.45;;;12.60;99.90;;;;;;5050010;28;20519;-44
2022/09/25 01:33:47;;;;;;;30.60;20.92;;;12.60;99.90;;;;;;5049482;28;20033;-46
2022/09/25 01:36:33;;;;;;;31.38;19.92;;;12.60;99.90;;;;;;5049900;28;20036;-44
2022/09/25 01:39:21;;;;;;;37.53;21.48;;;12.60;99.90;;;;;;5045475;28;20123;-45
2022/09/25 01:41:59;;;;;;;36.97;21.85;;;12.60;99.90;;;;;;5040146;28;20013;-44
2022/09/25 01:44:29;;;;;;;32.17;21.17;;;12.70;99.90;;;;;;5049450;28;20500;-44
2022/09/25 01:47:02;;;;;;;37.45;22.90;;;12.60;99.90;;;;;;5049814;28;20382;-45
2022/09/25 01:49:36;;;;;;;39.63;25.23;;;12.70;99.90;;;;;;5048661;28;20040;-44
2022/09/25 01:52:09;;;;;;;30.33;20.85;;;12.70;99.90;;;;;;5049735;28;20028;-44
2022/09/25 01:54:44;;;;;;;52.85;26.02;;;12.60;99.90;;;;;;5048966;28;20056;-44
2022/09/25 01:57:33;;;;;;;37.85;24.95;;;12.60;99.90;;;;;;5049754;28;20043;-44
2022/09/25 02:00:07;;;;;;;36.58;24.15;;;12.60;99.90;;;;;;5049218;28;20029;-45
2022/09/25 02:02:42;;;;;;;41.70;23.67;;;12.60;99.90;;;;;;5049103;28;20379;-44
2022/09/25 02:05:18;;;;;;;40.63;26.00;;;12.60;99.90;;;;;;5048443;28;20076;-44
2022/09/25 02:07:59;;;;;;;45.42;28.30;;;12.60;99.90;;;;;;5045720;28;20017;-44
2022/09/25 02:10:32;;;;;;;37.22;23.48;;;12.60;99.90;;;;;;5029648;28;20025;-50
2022/09/25 02:13:07;;;;;;;36.50;24.67;;;12.60;99.90;;;;;;5029020;28;20162;-45
2022/09/25 02:15:39;;;;;;;31.48;22.17;;;12.60;99.90;;;;;;5029491;28;20025;-44
2022/09/25 02:21:32;;;;;;;34.40;22.80;;;12.60;99.90;;;;;;5030472;28;20039;-44
2022/09/25 02:24:04;;;;;;;35.80;23.25;;;12.60;99.90;;;;;;5027447;28;20140;-45
2022/09/25 02:26:33;;;;;;;41.03;25.83;;;12.60;99.90;;;;;;5017812;28;20033;-44
2022/09/25 02:28:59;;;;;;;41.92;26.77;;;12.60;99.90;;;;;;5012030;28;20120;-44
2022/09/25 02:31:30;;;;;;;42.63;25.75;;;12.50;99.90;;;;;;5046746;28;20033;-46
2022/09/25 02:33:57;;;;;;;44.53;27.42;;;12.60;99.90;;;;;;5049512;28;20017;-45
2022/09/25 02:36:22;;;;;;;43.13;27.55;;;12.60;99.90;;;;;;5049823;28;20076;-44
2022/09/25 02:38:49;;;;;;;37.05;24.00;;;12.60;99.90;;;;;;5045509;28;20483;-46
2022/09/25 02:41:25;;;;;;;39.10;24.83;;;12.60;99.90;;;;;;5040550;28;20451;-44
2022/09/25 02:44:19;;;;;;;36.75;23.20;;;12.70;99.90;;;;;;5048353;28;20532;-44
2022/09/25 02:47:13;;;;;;;42.92;27.73;;;12.70;99.90;;;;;;5040394;28;20568;-44
2022/09/25 02:49:52;;;;;;;39.75;24.35;;;12.70;99.90;;;;;;5049886;28;20043;-44
2022/09/25 02:52:57;;;;;;;44.33;28.27;;;12.70;99.90;;;;;;5049699;28;20032;-45
2022/09/25 02:55:44;;;;;;;44.83;28.58;;;12.60;99.90;;;;;;5049515;28;20029;-44
2022/09/25 02:58:23;;;;;;;47.42;28.88;;;12.60;99.90;;;;;;5017649;28;20069;-44
2022/09/25 03:00:52;;;;;;;42.28;26.40;;;12.60;99.90;;;;;;5010117;28;20088;-44
2022/09/25 03:03:20;;;;;;;43.97;28.67;;;12.60;99.90;;;;;;5014933;28;20399;-44
2022/09/25 03:05:47;;;;;;;40.67;27.52;;;12.60;99.90;;;;;;5010054;28;20480;-44
2022/09/25 03:10:58;;;;;;;37.78;24.88;;;12.60;99.90;;;;;;5041336;28;20078;-44
2022/09/25 03:13:30;;;;;;;47.33;29.88;;;12.60;99.90;;;;;;5042861;28;20029;-45
2022/09/25 03:16:03;;;;;;;37.40;25.27;;;12.60;99.90;;;;;;5016943;28;20030;-44
2022/09/25 03:18:30;;;;;;;48.15;27.65;;;12.60;99.90;;;;;;5026439;28;20080;-44
2022/09/25 03:20:56;;;;;;;36.92;26.02;;;12.60;99.90;;;;;;5031590;28;20045;-44
2022/09/25 03:23:22;;;;;;;42.92;27.35;;;12.70;99.90;;;;;;5031197;28;20032;-44
2022/09/25 03:25:48;;;;;;;42.35;28.80;;;12.60;99.90;;;;;;5033119;28;20018;-44
2022/09/25 03:28:14;;;;;;;48.17;29.88;;;12.60;99.90;;;;;;5031794;28;20067;-44
2022/09/25 03:30:40;;;;;;;40.25;26.40;;;12.60;99.90;;;;;;5031882;28;20099;-44
2022/09/25 03:33:16;;;;;;;47.63;28.35;;;12.60;99.90;;;;;;5032767;28;20053;-44
2022/09/25 03:35:41;;;;;;;42.50;26.48;;;12.60;99.90;;;;;;5033087;28;20064;-45
2022/09/25 03:38:09;;;;;;;43.38;27.30;;;12.60;99.90;;;;;;5033963;28;20057;-45
2022/09/25 03:40:34;;;;;;;41.10;26.92;;;12.60;99.90;;;;;;5036767;28;20418;-43
2022/09/25 03:43:01;;;;;;;47.70;29.42;;;12.70;99.90;;;;;;5026114;28;20022;-44
2022/09/25 03:45:26;;;;;;;43.45;27.65;;;12.60;99.90;;;;;;5032335;28;20095;-45
2022/09/25 03:47:52;;;;;;;39.95;25.77;;;12.60;99.90;;;;;;5032861;28;20571;-44
2022/09/25 03:50:17;;;;;;;39.55;23.75;;;12.60;99.90;;;;;;5032800;28;20084;-44
2022/09/25 03:52:43;;;;;;;34.50;23.20;;;12.70;99.90;;;;;;5032227;28;20478;-47
2022/09/25 03:55:10;;;;;;;39.80;26.75;;;12.70;99.90;;;;;;5032294;28;20032;-43
2022/09/25 03:57:37;;;;;;;41.63;25.63;;;12.70;99.90;;;;;;5032762;28;20033;-46
2022/09/25 04:00:03;;;;;;;38.50;25.23;;;12.70;99.90;;;;;;5032747;28;20030;-45
2022/09/25 04:02:29;;;;;;;37.63;23.95;;;12.60;99.90;;;;;;5031960;28;20496;-45
2022/09/25 04:04:55;;;;;;;42.70;26.35;;;12.70;99.90;;;;;;5032519;28;20041;-45
2022/09/25 04:07:22;;;;;;;37.28;23.20;;;12.70;99.90;;;;;;5032478;28;20057;-44
2022/09/25 04:09:48;;;;;;;35.03;23.58;;;12.70;99.90;;;;;;5039257;28;20052;-45
2022/09/25 04:12:13;;;;;;;38.42;24.98;;;12.70;99.90;;;;;;5050745;28;20033;-47
2022/09/25 04:14:41;;;;;;;39.25;24.05;;;12.70;99.90;;;;;;5051644;28;20075;-44
2022/09/25 04:17:07;;;;;;;38.58;23.95;;;12.70;99.90;;;;;;5052090;28;20554;-44
2022/09/25 04:19:32;;;;;;;38.97;24.63;;;12.70;99.90;;;;;;5051966;28;20124;-45
2022/09/25 04:21:58;;;;;;;39.45;25.90;;;12.70;99.90;;;;;;5052530;28;20104;-47
2022/09/25 04:27:09;;;;;;;38.25;25.33;;;12.70;99.90;;;;;;5052178;28;20043;-46
2022/09/25 04:29:35;;;;;;;35.63;23.50;;;12.70;99.90;;;;;;5052005;28;20029;-45
2022/09/25 04:34:45;;;;;;;31.65;21.48;;;12.70;99.90;;;;;;5051511;28;20047;-45
2022/09/25 04:37:12;;;;;;;30.90;21.95;;;12.70;99.90;;;;;;5051958;28;20029;-46
2022/09/25 04:39:38;;;;;;;33.97;21.90;;;12.70;99.90;;;;;;5045273;28;20037;-45
2022/09/25 04:42:04;;;;;;;30.80;20.50;;;12.70;99.90;;;;;;5048910;28;20088;-45
2022/09/25 04:44:30;;;;;;;34.15;21.98;;;12.70;99.90;;;;;;5051224;28;20025;-44
2022/09/25 04:46:56;;;;;;;30.20;20.30;;;12.70;99.90;;;;;;5051547;28;20066;-46
2022/09/25 04:49:21;;;;;;;33.72;22.67;;;12.70;99.90;;;;;;5050132;28;20179;-44
2022/09/25 04:51:47;;;;;;;40.50;23.10;;;12.70;99.90;;;;;;5041544;28;20034;-44
2022/09/25 04:54:15;;;;;;;34.33;23.20;;;12.70;99.90;;;;;;5031015;28;20029;-44
2022/09/25 04:56:42;;;;;;;35.22;21.38;;;12.60;99.90;;;;;;5031518;28;20021;-44
2022/09/25 04:59:10;;;;;;;27.73;18.92;;;12.60;99.90;;;;;;5031448;28;20035;-44
2022/09/25 05:01:36;;;;;;;34.28;21.13;;;12.60;99.90;;;;;;5031382;28;20052;-44
2022/09/25 05:04:01;;;;;;;33.70;21.35;;;12.60;99.90;;;;;;5030609;28;20057;-44
2022/09/25 05:06:28;;;;;;;31.63;20.20;;;12.60;99.90;;;;;;5029661;28;20018;-44
2022/09/25 05:08:56;;;;;;;31.75;21.33;;;12.60;99.90;;;;;;5029616;28;20026;-45
2022/09/25 05:11:21;;;;;;;40.92;23.55;;;12.70;99.90;;;;;;5042017;28;20112;-44
2022/09/25 05:13:51;;;;;;;35.40;22.02;;;12.60;99.90;;;;;;5048906;28;20542;-44
2022/09/25 05:16:17;;;;;;;46.17;25.23;;;12.70;99.90;;;;;;5050729;28;20028;-45
2022/09/25 05:18:43;;;;;;;43.85;24.48;;;12.60;99.90;;;;;;5049111;28;20029;-44
2022/09/25 05:21:08;;;;;;;47.97;27.60;;;12.70;99.90;;;;;;5050835;28;20429;-44
2022/09/25 05:23:34;;;;;;;50.55;28.52;;;12.60;99.90;;;;;;5050096;28;20029;-45
2022/09/25 05:26:01;;;;;;;52.70;29.10;;;12.60;99.90;;;;;;5050942;28;20024;-44
2022/09/25 05:28:30;;;;;;;51.10;28.25;;;12.60;99.90;;;;;;5050964;28;20025;-44
2022/09/25 05:31:04;;;;;;;51.90;28.20;;;12.60;99.90;;;;;;5050779;28;20036;-44
2022/09/25 05:33:34;;;;;;;60.70;30.65;;;12.50;99.90;;;;;;5048989;28;20032;-43
2022/09/25 05:36:04;;;;;;;54.17;26.67;;;12.50;99.90;;;;;;5050703;28;20035;-45
2022/09/25 05:38:34;;;;;;;60.30;28.05;;;12.50;99.90;;;;;;5046581;28;20895;-44
2022/09/25 05:41:05;;;;;;;65.10;30.90;;;12.50;99.90;;;;;;5038990;28;20048;-44
2022/09/25 05:43:32;;;;;;;66.32;31.75;;;12.50;99.90;;;;;;5049833;28;20017;-44
2022/09/25 05:45:57;;;;;;;71.15;32.17;;;12.50;99.90;;;;;;5049409;28;20028;-45
2022/09/25 05:48:23;;;;;;;67.25;31.83;;;12.50;99.90;;;;;;5050561;28;20124;-45
2022/09/25 05:50:53;;;;;;;79.40;34.38;;;12.50;99.90;;;;;;5050457;28;20507;-44
2022/09/25 05:53:19;;;;;;;84.70;36.28;;;12.50;99.90;;;;;;5050029;28;20070;-46
2022/09/25 05:55:58;;;;;;;78.05;34.00;;;12.50;99.90;;;;;;5050097;28;20103;-43
2022/09/25 05:58:28;;;;;;;85.25;37.40;;;12.40;99.90;;;;;;5050607;28;20025;-44
2022/09/25 06:00:58;;;;;;;80.68;37.00;;;12.40;99.90;;;;;;5050343;28;20394;-44
2022/09/25 06:03:27;;;;;;;82.22;38.15;;;12.40;99.90;;;;;;5049963;28;20021;-45
2022/09/25 06:05:57;;;;;;;85.55;37.22;;;12.40;99.90;;;;;;5049021;28;20617;-44
2022/09/25 06:08:24;;;;;;;81.60;35.15;;;12.40;99.90;;;;;;5046549;28;20029;-45
2022/09/25 06:10:52;;;;;;;82.80;39.65;;;12.40;99.90;;;;;;5036852;28;20025;-45
2022/09/25 06:13:18;;;;;;;87.47;38.13;;;12.40;99.90;;;;;;5022695;28;20036;-46
2022/09/25 06:15:44;;;;;;;90.10;41.28;;;12.40;99.90;;;;;;5020570;28;20018;-44
2022/09/25 06:18:09;;;;;;;81.18;36.60;;;12.40;99.90;;;;;;5020146;28;20479;-46
2022/09/25 06:20:35;;;;;;;77.60;37.60;;;12.50;99.90;;;;;;5018976;28;20030;-45
2022/09/25 06:23:01;;;;;;;95.50;40.90;;;12.40;99.90;;;;;;5018352;28;20030;-45
2022/09/25 06:25:35;;;;;;;92.20;40.95;;;12.50;99.90;;;;;;5018743;28;20017;-47
2022/09/25 06:28:01;;;;;;;87.10;40.80;;;12.50;99.90;;;;;;5021100;28;20030;-45
2022/09/25 06:30:33;;;;;;;95.90;42.60;;;12.50;99.90;;;;;;5019525;28;20029;-46
2022/09/25 06:33:03;;;;;;;92.15;41.53;;;12.50;99.90;;;;;;5017608;28;20545;-47
2022/09/25 06:35:28;;;;;;;96.40;42.30;;;12.50;99.90;;;;;;5024617;28;20471;-46
2022/09/25 06:37:58;;;;;;;87.15;41.35;;;12.50;99.90;;;;;;5028838;28;20061;-46
2022/09/25 06:40:28;;;;;;;85.93;38.87;;;12.50;99.90;;;;;;5037964;28;20422;-45
2022/09/25 06:42:59;;;;;;;80.75;39.30;;;12.50;99.90;;;;;;5045395;28;20017;-46
2022/09/25 06:45:26;;;;;;;75.60;36.85;;;12.60;99.90;;;;;;5048068;28;20402;-46
2022/09/25 06:47:56;;;;;;;88.65;42.08;;;12.60;99.90;;;;;;5050173;28;20052;-46
2022/09/25 06:50:30;;;;;;;102.43;43.90;;;12.60;99.90;;;;;;5047464;28;20025;-46
2022/09/25 06:52:59;;;;;;;84.97;39.60;;;12.60;99.90;;;;;;5049724;28;20104;-47
2022/09/25 06:55:31;;;;;;;89.10;41.67;;;12.60;99.90;;;;;;5052102;28;20487;-46
2022/09/25 06:57:57;;;;;;;87.45;41.13;;;12.60;99.90;;;;;;5053348;28;20599;-45
2022/09/25 07:00:22;;;;;;;85.78;41.53;;;12.60;99.90;;;;;;5053708;28;20048;-45
2022/09/25 07:05:33;;;;;;;85.68;41.20;;;12.60;99.90;;;;;;5053980;28;20075;-44
2022/09/25 07:07:59;;;;;;;82.13;40.25;;;12.60;99.90;;;;;;5052156;28;20422;-44
2022/09/25 07:10:24;;;;;;;77.68;38.47;;;12.60;99.90;;;;;;5040151;28;20326;-44
2022/09/25 07:12:50;;;;;;;70.90;35.78;;;12.60;99.90;;;;;;5046748;28;20032;-45
2022/09/25 07:15:15;;;;;;;67.53;34.58;;;12.70;99.90;;;;;;5053227;28;20036;-44
2022/09/25 07:17:42;;;;;;;55.20;29.63;;;12.70;99.90;;;;;;5053268;28;20021;-44
2022/09/25 07:20:11;;;;;;;54.50;29.90;;;12.70;99.90;;;;;;5051810;28;20064;-45
2022/09/25 07:22:37;;;;;;;46.00;24.70;;;12.70;99.90;;;;;;5052791;28;20067;-45
2022/09/25 07:25:04;;;;;;;47.00;25.67;;;12.80;99.90;;;;;;5051619;28;20041;-44
2022/09/25 07:27:29;;;;;;;41.53;22.27;;;12.80;99.90;;;;;;5051788;28;20494;-44
2022/09/25 07:29:55;;;;;;;46.53;26.23;;;12.80;99.90;;;;;;5053064;28;20064;-45
2022/09/25 07:32:21;;;;;;;50.33;27.25;;;12.70;99.90;;;;;;5051629;28;20060;-45
2022/09/25 07:34:49;;;;;;;45.38;23.58;;;12.80;99.90;;;;;;5052709;28;20047;-45
2022/09/25 07:37:16;;;;;;;46.40;25.45;;;12.80;99.90;;;;;;5052926;28;20064;-45
2022/09/25 07:39:42;;;;;;;40.95;23.77;;;12.80;99.90;;;;;;5045337;28;20025;-44
2022/09/25 07:42:08;;;;;;;45.65;25.27;;;12.80;99.90;;;;;;5028460;28;20380;-44
2022/09/25 07:44:34;;;;;;;39.80;22.55;;;12.90;99.90;;;;;;5020638;28;20029;-44
2022/09/25 07:47:02;;;;;;;45.05;25.35;;;12.90;99.90;;;;;;5012685;28;20711;-44
2022/09/25 07:49:28;;;;;;;42.40;23.40;;;12.90;99.90;;;;;;5013062;28;20048;-45
2022/09/25 07:51:54;;;;;;;42.42;22.40;;;12.90;99.90;;;;;;5011603;28;20018;-44
2022/09/25 07:54:20;;;;;;;39.92;22.95;;;13.00;99.90;;;;;;5012291;28;20079;-44
2022/09/25 07:56:45;;;;;;;36.85;22.10;;;13.00;99.90;;;;;;5012199;28;20099;-44
2022/09/25 07:59:11;;;;;;;39.70;21.60;;;13.00;99.90;;;;;;5011968;28;20036;-44
2022/09/25 08:01:36;;;;;;;35.97;19.85;;;12.90;99.90;;;;;;5011523;28;20598;-45
2022/09/25 08:04:02;;;;;;;32.42;18.83;;;13.00;99.90;;;;;;5011030;28;20423;-44
2022/09/25 08:06:27;;;;;;;31.63;18.98;;;13.00;99.90;;;;;;5012623;28;20030;-44
2022/09/25 08:08:53;;;;;;;30.33;17.08;;;12.90;99.90;;;;;;5016494;28;20033;-43
2022/09/25 08:11:19;;;;;;;26.85;16.60;;;13.00;99.90;;;;;;5036595;28;20082;-44
2022/09/25 08:13:45;;;;;;;24.17;15.05;;;13.00;99.90;;;;;;5019166;28;20018;-44
2022/09/25 08:16:14;;;;;;;25.35;15.15;;;13.00;99.90;;;;;;5021085;28;20048;-45
2022/09/25 08:18:40;;;;;;;31.58;18.80;;;13.10;99.90;;;;;;5021227;28;20101;-44
2022/09/25 08:21:07;;;;;;;23.80;15.55;;;13.10;99.90;;;;;;5022781;28;20083;-45
2022/09/25 08:23:33;;;;;;;27.23;15.73;;;13.00;99.90;;;;;;5021592;28;20021;-44
2022/09/25 08:25:59;;;;;;;24.63;15.18;;;13.00;99.90;;;;;;5017209;28;20029;-44
2022/09/25 08:28:24;;;;;;;22.65;15.18;;;13.00;99.90;;;;;;5011239;28;20030;-44
2022/09/25 08:31:05;;;;;;;26.20;15.07;;;13.00;99.90;;;;;;5010959;28;20038;-44
2022/09/25 08:33:33;;;;;;;26.45;16.50;;;13.00;99.90;;;;;;5011746;28;20026;-43
2022/09/25 08:36:00;;;;;;;26.88;15.63;;;13.00;99.90;;;;;;5010905;28;20040;-44
2022/09/25 08:38:28;;;;;;;24.60;15.00;;;13.00;99.90;;;;;;5012365;28;20088;-45
2022/09/25 08:41:04;;;;;;;20.73;13.02;;;13.00;99.90;;;;;;5039703;28;20025;-44
2022/09/25 08:43:33;;;;;;;22.25;14.77;;;13.00;99.90;;;;;;5011589;28;20056;-48
2022/09/25 08:49:04;;;;;;;20.98;15.25;;;13.10;99.90;;;;;;5013551;28;20127;-45
2022/09/25 08:51:45;;;;;;;20.20;13.43;;;13.10;99.90;;;;;;5014413;28;20037;-45
2022/09/25 08:54:23;;;;;;;21.30;13.30;;;13.10;99.90;;;;;;5011082;28;20488;-48
2022/09/25 08:56:57;;;;;;;21.25;14.18;;;13.20;99.90;;;;;;5012067;28;20037;-46
2022/09/25 08:59:29;;;;;;;23.83;14.23;;;13.20;99.90;;;;;;5011452;28;20120;-45
2022/09/25 09:01:59;;;;;;;19.70;13.68;;;13.10;99.90;;;;;;5011638;28;20079;-44
2022/09/25 09:04:32;;;;;;;25.27;16.57;;;13.20;99.90;;;;;;5011156;28;20021;-44
2022/09/25 09:07:05;;;;;;;29.25;16.65;;;13.10;99.90;;;;;;5023964;28;20082;-45
2022/09/25 09:09:40;;;;;;;23.60;14.70;;;13.10;99.90;;;;;;5033427;28;20025;-45
2022/09/25 09:12:12;;;;;;;28.92;14.85;;;13.10;99.90;;;;;;5041731;28;20021;-45
2022/09/25 09:14:47;;;;;;;23.33;14.77;;;13.10;99.90;;;;;;5049885;28;20021;-45
2022/09/25 09:17:25;;;;;;;26.05;14.40;;;13.20;99.90;;;;;;5049452;28;20094;-45
2022/09/25 09:19:55;;;;;;;19.13;13.38;;;13.20;99.90;;;;;;5048381;28;20051;-45
2022/09/25 09:22:29;;;;;;;22.30;14.25;;;13.20;99.90;;;;;;5049334;28;20043;-45
2022/09/25 09:25:24;;;;;;;18.00;12.80;;;13.30;99.90;;;;;;5049535;28;20021;-48
2022/09/25 09:27:52;;;;;;;19.40;12.57;;;13.20;99.90;;;;;;5049640;28;20494;-45
2022/09/25 09:30:43;;;;;;;18.00;12.90;;;13.30;99.90;;;;;;5049868;28;20029;-45
2022/09/25 09:33:30;;;;;;;19.30;13.45;;;13.40;99.90;;;;;;5049502;28;20033;-44
2022/09/25 09:36:07;;;;;;;22.00;14.50;;;13.40;99.90;;;;;;5049860;28;20029;-44
2022/09/25 09:38:41;;;;;;;21.33;13.55;;;13.40;99.90;;;;;;5046715;28;20394;-45
2022/09/25 09:41:25;;;;;;;22.40;13.38;;;13.40;99.90;;;;;;5038393;28;20048;-44
2022/09/25 09:44:12;;;;;;;23.33;14.70;;;13.40;99.90;;;;;;5049304;28;20171;-44
2022/09/25 09:46:59;;;;;;;19.45;13.40;;;13.40;99.90;;;;;;5048148;28;20029;-44
2022/09/25 09:49:51;;;;;;;21.02;12.98;;;13.40;99.90;;;;;;5049541;28;20540;-44
2022/09/25 09:52:21;;;;;;;17.20;11.25;;;13.40;99.90;;;;;;5047204;28;20064;-43
2022/09/25 09:54:59;;;;;;;22.67;14.52;;;13.50;99.90;;;;;;5049205;28;20057;-44
2022/09/25 09:57:35;;;;;;;21.95;14.73;;;13.60;99.90;;;;;;5045620;28;20520;-45
2022/09/25 10:00:14;;;;;;;23.40;13.30;;;13.50;99.90;;;;;;5047972;28;20021;-44
2022/09/25 10:02:50;;;;;;;25.08;13.93;;;13.50;99.90;;;;;;5047324;28;20021;-44
2022/09/25 10:05:27;;;;;;;19.80;13.32;;;13.50;99.90;;;;;;5047982;28;20098;-44
2022/09/25 10:07:53;;;;;;;19.08;13.02;;;13.50;99.90;;;;;;5044057;28;20043;-44
2022/09/25 10:10:22;;;;;;;26.00;14.05;;;13.50;99.90;;;;;;5024877;28;20108;-44
2022/09/25 10:12:52;;;;;;;24.60;13.05;;;13.60;99.90;;;;;;5023776;28;20503;-43
2022/09/25 10:15:43;;;;;;;23.45;14.55;;;13.50;99.90;;;;;;5026728;28;20123;-44
2022/09/25 10:18:09;;;;;;;;;;;13.50;99.90;;;;;;5027127;28;20121;-44
2022/09/25 10:20:56;;;;;;;25.95;15.15;;;13.50;99.90;;;;;;5026757;28;19958;-46
2022/09/25 10:23:37;;;;;;;23.83;14.90;;;13.70;99.90;;;;;;5026442;28;20072;-46
2022/09/25 10:26:23;;;;;;;23.45;14.88;;;13.60;99.90;;;;;;5026159;28;20029;-45
2022/09/25 10:28:48;;;;;;;23.60;15.70;;;13.70;99.90;;;;;;5027165;28;20030;-45
2022/09/25 10:31:17;;;;;;;23.75;14.32;;;13.60;99.90;;;;;;5031352;28;20022;-45
2022/09/25 10:34:17;;;;;;;24.90;14.63;;;13.70;99.90;;;;;;5029338;28;20025;-45
2022/09/25 10:36:46;;;;;;;23.07;14.83;;;13.70;99.90;;;;;;5030839;28;20052;-46
2022/09/25 10:39:33;;;;;;;27.75;15.30;;;13.70;99.90;;;;;;5040025;28;20280;-46
2022/09/25 10:42:00;;;;;;;22.20;13.55;;;13.70;99.90;;;;;;5049736;28;20067;-48
2022/09/25 10:44:34;;;;;;;18.42;12.80;;;13.70;99.90;;;;;;5048868;28;20514;-46
2022/09/25 10:50:25;;;;;;;20.33;12.95;;;13.70;99.90;;;;;;5049174;28;20083;-44
2022/09/25 10:52:54;;;;;;;20.77;13.07;;;13.80;99.90;;;;;;5043376;28;20481;-45
2022/09/25 10:55:29;;;;;;;19.70;13.57;;;13.90;99.90;;;;;;5037958;28;20068;-45
2022/09/25 10:58:01;;;;;;;18.88;12.80;;;14.10;99.90;;;;;;5010839;28;20026;-45
2022/09/25 11:00:26;;;;;;;21.98;12.70;;;14.10;99.90;;;;;;5012820;28;20029;-45
2022/09/25 11:02:59;;;;;;;23.05;12.15;;;14.10;99.90;;;;;;5030508;28;20022;-45
2022/09/25 11:05:30;;;;;;;17.63;10.73;;;14.20;99.90;;;;;;5014957;28;20025;-45
2022/09/25 11:08:00;;;;;;;21.13;12.55;;;14.30;99.90;;;;;;5027390;28;20017;-44
2022/09/25 11:10:29;;;;;;;14.32;10.15;;;14.30;99.90;;;;;;5032123;28;20017;-49
2022/09/25 11:12:56;;;;;;;22.00;12.18;;;14.30;99.90;;;;;;5024995;28;20029;-44
2022/09/25 11:15:26;;;;;;;15.45;10.75;;;14.40;99.90;;;;;;5029808;28;20034;-47
2022/09/25 11:17:57;;;;;;;16.42;10.73;;;14.50;99.90;;;;;;5028209;28;20049;-45
2022/09/25 11:20:30;;;;;;;19.65;10.13;;;14.50;99.90;;;;;;5028311;28;20499;-48
2022/09/25 11:23:03;;;;;;;21.33;10.15;;;14.50;99.90;;;;;;5029385;28;20029;-47
2022/09/25 11:26:04;;;;;;;13.63;10.20;;;14.40;99.90;;;;;;5029315;28;20025;-45
2022/09/25 11:28:53;;;;;;;15.45;8.70;;;14.50;99.90;;;;;;5027497;28;20033;-45
2022/09/25 11:31:42;;;;;;;14.52;10.60;;;14.50;99.90;;;;;;5030124;28;20112;-45
2022/09/25 11:34:07;;;;;;;12.88;9.52;;;14.60;99.90;;;;;;5029738;28;20124;-44
2022/09/25 11:36:42;;;;;;;18.13;11.05;;;14.60;99.90;;;;;;5030300;28;20453;-46
2022/09/25 11:42:04;;;;;;;;;;;14.60;99.90;;;;;;5042177;28;20031;-46
2022/09/25 11:44:59;;;;;;;10.23;8.80;;;14.70;99.90;;;;;;5048500;28;19909;-44
2022/09/25 11:47:29;;;;;;;16.05;10.40;;;14.80;99.90;;;;;;5050146;28;20543;-46
2022/09/25 11:49:57;;;;;;;21.67;9.63;;;14.70;99.90;;;;;;5049912;28;20458;-45
2022/09/25 11:52:42;;;;;;;12.77;9.38;;;14.70;99.90;;;;;;5049354;28;20410;-48
2022/09/25 11:55:16;;;;;;;10.70;9.38;;;14.80;99.90;;;;;;5049294;28;20033;-47
2022/09/25 11:58:03;;;;;;;16.88;8.20;;;15.00;99.90;;;;;;5050114;28;20033;-45
2022/09/25 12:00:39;;;;;;;13.70;9.20;;;15.10;99.90;;;;;;5037915;28;20029;-46
2022/09/25 12:03:20;;;;;;;12.90;8.73;;;15.10;99.90;;;;;;5023970;28;20431;-45
2022/09/25 12:06:15;;;;;;;;;;;15.00;99.90;;;;;;5030185;28;20195;-44
2022/09/25 12:09:03;;;;;;;10.95;8.85;;;15.00;99.90;;;;;;5009143;28;19909;-48
2022/09/25 12:11:44;;;;;;;16.02;9.18;;;14.90;99.90;;;;;;5030022;28;20009;-47
2022/09/25 12:14:42;;;;;;;14.88;8.27;;;14.80;99.90;;;;;;5029575;28;20022;-47
2022/09/25 12:17:43;;;;;;;10.57;8.02;;;14.80;99.90;;;;;;5025206;28;20071;-45
2022/09/25 12:20:35;;;;;;;11.20;6.50;;;14.60;99.90;;;;;;5029851;28;20517;-43
2022/09/25 12:23:19;;;;;;;10.80;7.10;;;14.70;99.90;;;;;;5026928;28;20060;-44
2022/09/25 12:26:31;;;;;;;7.57;6.78;;;14.70;99.90;;;;;;5029617;28;20033;-44
2022/09/25 12:29:24;;;;;;;13.25;7.45;;;14.70;99.90;;;;;;5029740;28;20258;-44
2022/09/25 12:32:05;;;;;;;12.35;7.00;;;14.70;99.90;;;;;;5029795;28;20022;-44
2022/09/25 12:34:51;;;;;;;;;;;14.60;99.90;;;;;;5029967;28;20018;-44
2022/09/25 12:37:39;;;;;;;7.45;6.50;;;14.60;99.90;;;;;;5029990;28;19904;-43
2022/09/25 12:40:27;;;;;;;9.18;6.30;;;14.70;99.90;;;;;;5024873;28;20025;-43
2022/09/25 12:43:23;;;;;;;12.43;6.45;;;14.80;99.90;;;;;;5044468;28;20031;-43
2022/09/25 12:46:13;;;;;;;10.88;6.93;;;14.80;99.90;;;;;;5049264;28;20026;-45
2022/09/25 12:49:18;;;;;;;12.52;6.85;;;14.70;99.90;;;;;;5049222;28;20190;-45
2022/09/25 12:51:50;;;;;;;8.32;5.82;;;14.80;99.90;;;;;;5048390;28;20577;-44
2022/09/25 12:54:18;;;;;;;8.68;5.75;;;14.80;99.90;;;;;;5048965;28;20037;-45
2022/09/25 12:56:59;;;;;;;10.18;5.75;;;14.90;99.90;;;;;;5048958;28;20417;-46
2022/09/25 12:59:41;;;;;;;7.18;5.50;;;15.00;99.90;;;;;;5049118;28;20089;-45
2022/09/25 13:02:15;;;;;;;10.07;4.60;;;15.00;99.90;;;;;;5049398;28;20490;-45
2022/09/25 13:05:00;;;;;;;5.60;4.43;;;15.10;99.90;;;;;;5048566;28;20021;-45
2022/09/25 13:07:56;;;;;;;11.27;7.05;;;15.00;99.90;;;;;;5049214;28;20020;-46
2022/09/25 13:10:40;;;;;;;10.98;7.20;;;15.00;99.90;;;;;;5043978;28;20095;-45
2022/09/25 13:13:18;;;;;;;8.50;4.88;;;15.00;99.90;;;;;;5046050;28;20033;-46
2022/09/25 13:15:47;;;;;;;6.85;4.40;;;15.00;99.90;;;;;;5049143;28;20028;-46
2022/09/25 13:18:19;;;;;;;9.05;4.63;;;15.10;99.90;;;;;;5048806;28;20108;-46
2022/09/25 13:20:50;;;;;;;10.50;5.50;;;15.30;99.90;;;;;;5025364;28;20101;-46